M I D A S
Marine Information and Data Acquisition System
Tripno 484 of the Zeeleeuw from 2003-05-05 06:53:56 to 2003-05-05 15:13:46
Back to CruiseResearch ActivitiesStationsMapUnderway DataData graphs

EquipmentUnitsComment
TimeDGPSUTC
LatitudeDGPSDM.mWGS84
LongitudeDGPSDM.mWGS84
HeadingGyrodeg 
SOGDGPSknotsSpeed over ground
COGDGPSdegCourse over ground
DepthEcho soundermeters200 kHz
Missing or incorrect values are displayed as -999
Navigation data collected by the RV Zeeleeuw from 2003-05-05 06:53:56 to 2003-05-05 15:13:46
Time Latitude Longitude Heading SOG COG Depth
2003-05-05 06:54:58 51°13.6 2°56.1 111.9 0.1 287 7.2
2003-05-05 06:56:02 51°13.61 2°56.05 113.3 3.7 291 -999
2003-05-05 06:57:04 51°13.64 2°55.94 119.3 4.9 296 -999
2003-05-05 06:58:04 51°13.67 2°55.82 108.8 4 288 -999
2003-05-05 06:59:02 51°13.68 2°55.76 82 0.8 298 10.8
2003-05-05 06:59:58 51°13.7 2°55.76 19.5 2.2 4 10.6
2003-05-05 07:00:58 51°13.74 2°55.73 325 3.6 321 9
2003-05-05 07:01:58 51°13.81 2°55.65 333.6 5.8 330 9.5
2003-05-05 07:02:58 51°13.9 2°55.57 338.2 6.8 332 9.3
2003-05-05 07:03:58 51°14.01 2°55.49 340 7.7 334 9.3
2003-05-05 07:04:58 51°14.14 2°55.4 340.7 8.9 335 -999
2003-05-05 07:06:00 51°14.27 2°55.25 320.9 9.6 314 9.2
2003-05-05 07:06:58 51°14.37 2°55.06 319 10.6 313 10
2003-05-05 07:07:58 51°14.52 2°54.87 333.8 12.1 325 9.1
2003-05-05 07:08:58 51°14.7 2°54.71 341.1 12.1 330 8.7
2003-05-05 07:09:58 51°14.87 2°54.55 341.6 12.3 332 8.6
2003-05-05 07:10:58 51°15.05 2°54.4 341.1 12.2 331 8
2003-05-05 07:11:58 51°15.23 2°54.24 343 12.7 334 8.5
2003-05-05 07:12:58 51°15.42 2°54.08 339.7 13 330 9.3
2003-05-05 07:13:58 51°15.61 2°53.91 340.6 12.7 331 10
2003-05-05 07:14:58 51°15.79 2°53.75 341.6 12.8 332 10.7
2003-05-05 07:15:58 51°15.98 2°53.58 340.7 13.4 331 11.1
2003-05-05 07:16:58 51°16.18 2°53.41 340.3 13.3 330 11.3
2003-05-05 07:17:58 51°16.37 2°53.24 341 13.4 332 11.6
2003-05-05 07:18:58 51°16.57 2°53.07 340.6 13.4 331 11.1
2003-05-05 07:19:58 51°16.77 2°52.9 341.9 13.4 333 9.7
2003-05-05 07:20:58 51°16.96 2°52.74 339.5 13.4 331 8.9
2003-05-05 07:21:58 51°17.16 2°52.57 339.5 13.5 331 8.9
2003-05-05 07:22:58 51°17.36 2°52.4 343.3 13.6 336 9.9
2003-05-05 07:23:58 51°17.58 2°52.32 356.2 13.4 347 9.7
2003-05-05 07:24:58 51°17.79 2°52.28 11.1 13 2 9.8
2003-05-05 07:25:58 51°18 2°52.33 29.6 12.8 22 10
2003-05-05 07:26:58 51°18.18 2°52.51 41.8 12.6 33 10.2
2003-05-05 07:27:58 51°18.35 2°52.71 50.1 12.5 43 10.5
2003-05-05 07:28:58 51°18.48 2°52.97 66.7 12.3 62 10.6
2003-05-05 07:29:58 51°18.58 2°53.25 66.5 12.5 61 10.7
2003-05-05 07:30:58 51°18.69 2°53.54 65.4 12.5 59 10.8
2003-05-05 07:31:58 51°18.79 2°53.83 65.8 12.5 60 10.7
2003-05-05 07:32:58 51°18.89 2°54.12 67.3 12.8 61 10.6
2003-05-05 07:33:58 51°18.99 2°54.42 68.1 12.9 63 10.7
2003-05-05 07:34:58 51°19.09 2°54.72 67.3 12.8 61 10.7
2003-05-05 07:35:58 51°19.2 2°55.03 66.8 12.9 61 10.8
2003-05-05 07:36:58 51°19.3 2°55.33 67.4 12.9 61 10.8
2003-05-05 07:37:58 51°19.4 2°55.62 67.5 12.8 62 10.8
2003-05-05 07:38:58 51°19.5 2°55.93 68.2 12.8 62 10.8
2003-05-05 07:39:58 51°19.58 2°56.24 78.6 12.7 73 10.7
2003-05-05 07:40:58 51°19.65 2°56.56 78 12.6 72 10.5
2003-05-05 07:41:58 51°19.72 2°56.87 72.6 12.7 67 10.4
2003-05-05 07:42:58 51°19.8 2°57.18 74.8 12.5 70 10.3
2003-05-05 07:43:58 51°19.87 2°57.49 75.8 12.5 71 10.2
2003-05-05 07:44:58 51°19.95 2°57.8 75.1 12.5 70 10
2003-05-05 07:45:58 51°20.02 2°58.11 74.7 12.4 70 10
2003-05-05 07:46:58 51°20.1 2°58.42 74.3 12.3 70 9.9
2003-05-05 07:47:58 51°20.17 2°58.72 74.4 12.3 68 9.8
2003-05-05 07:48:58 51°20.25 2°59.03 75.3 12.3 69 9.7
2003-05-05 07:49:58 51°20.32 2°59.33 73.2 12.3 66 9.6
2003-05-05 07:50:58 51°20.4 2°59.63 76.2 12.2 70 9.5
2003-05-05 07:51:58 51°20.47 2°59.93 73.9 12.1 68 9.4
2003-05-05 07:52:58 51°20.54 3°0.23 74 12.2 67 9.3
2003-05-05 07:53:58 51°20.62 3°0.54 74.6 12.2 68 9.2
2003-05-05 07:54:58 51°20.69 3°0.84 77.9 12.1 72 9.2
2003-05-05 07:55:58 51°20.75 3°1.14 77.4 12.1 72 9.2
2003-05-05 07:56:58 51°20.82 3°1.44 75.4 12 69 9.2
2003-05-05 07:57:58 51°20.89 3°1.75 76 12.1 71 9.3
2003-05-05 07:58:58 51°20.95 3°2.05 75.7 11.9 70 9.4
2003-05-05 07:59:58 51°21.02 3°2.35 75.4 12 70 9.5
2003-05-05 08:00:58 51°21.09 3°2.65 75.4 11.9 70 9.6
2003-05-05 08:01:58 51°21.16 3°2.95 74.3 12 68 9.6
2003-05-05 08:02:58 51°21.22 3°3.25 75.2 11.9 69 9.6
2003-05-05 08:03:58 51°21.29 3°3.54 75.1 11.4 69 9.7
2003-05-05 08:04:58 51°21.35 3°3.81 77.3 9.7 71 9.8
2003-05-05 08:05:58 51°21.39 3°4.02 76.1 8.2 69 9.9
2003-05-05 08:06:58 51°21.44 3°4.22 76.3 7.6 72 9.9
2003-05-05 08:07:58 51°21.48 3°4.41 77.3 7.3 70 10
2003-05-05 08:08:58 51°21.52 3°4.58 76.3 6.5 70 10.1
2003-05-05 08:09:58 51°21.56 3°4.74 75.7 6.9 69 10.2
2003-05-05 08:10:58 51°21.6 3°4.94 76.8 8.6 71 10.3
2003-05-05 08:11:58 51°21.67 3°5.16 68.5 9.5 62 10.2
2003-05-05 08:12:58 51°21.74 3°5.38 69.7 9.6 62 10.3
2003-05-05 08:13:58 51°21.82 3°5.61 69.5 9.6 64 10.4
2003-05-05 08:14:58 51°21.89 3°5.85 74.1 10.8 70 10.5
2003-05-05 08:15:58 51°21.95 3°6.12 73.3 11 68 10.6
2003-05-05 08:16:58 51°22.01 3°6.4 75.4 11 72 10.8
2003-05-05 08:17:58 51°22.07 3°6.68 75.1 11.1 70 11
2003-05-05 08:18:58 51°22.13 3°6.96 73.7 11.3 68 11.2
2003-05-05 08:19:58 51°22.19 3°7.25 74 11.4 70 11.2
2003-05-05 08:20:58 51°22.25 3°7.54 74.7 11.4 71 11.2
2003-05-05 08:21:58 51°22.31 3°7.82 74.8 11.3 71 11.2
2003-05-05 08:22:58 51°22.37 3°8.1 72.7 11.4 69 11.4
2003-05-05 08:23:58 51°22.44 3°8.38 72.8 10.8 69 11.6
2003-05-05 08:24:58 51°22.5 3°8.61 73.4 8.4 68 11.8
2003-05-05 08:25:58 51°22.54 3°8.78 73.1 6.1 67 11.9
2003-05-05 08:26:58 51°22.58 3°8.92 68.3 5.5 61 12
2003-05-05 08:27:58 51°22.61 3°9.06 75.1 5.4 71 12.2
2003-05-05 08:28:58 51°22.64 3°9.19 76.5 5.3 76 12.3
2003-05-05 08:29:58 51°22.67 3°9.32 79.5 5.3 75 12.2
2003-05-05 08:30:58 51°22.69 3°9.43 69.8 3 64 12.4
2003-05-05 08:31:58 51°22.7 3°9.45 49.6 1 9 12.4
2003-05-05 08:32:58 51°22.72 3°9.45 39.8 1.1 349 12.2
2003-05-05 08:33:58 51°22.74 3°9.44 38.7 1.1 344 12.3
2003-05-05 08:34:58 51°22.76 3°9.44 46.3 0.9 351 12.2
2003-05-05 08:35:58 51°22.77 3°9.44 59.3 0.6 13 12.3
2003-05-05 08:36:58 51°22.78 3°9.45 70.8 0.5 53 12.3
2003-05-05 08:37:58 51°22.78 3°9.46 89.4 0.5 139 12.4
2003-05-05 08:38:58 51°22.77 3°9.47 111.7 0.7 169 12.3
2003-05-05 08:39:58 51°22.76 3°9.47 127.2 1.2 187 12.3
2003-05-05 08:40:58 51°22.74 3°9.46 131.1 1.1 197 12.4
2003-05-05 08:41:58 51°22.72 3°9.45 129.9 1.2 208 12.3
2003-05-05 08:42:58 51°22.7 3°9.44 120.2 0.9 196 12.4
2003-05-05 08:43:58 51°22.69 3°9.44 100.6 0.6 173 12.4
2003-05-05 08:44:58 51°22.69 3°9.45 90.4 0.5 116 12.4
2003-05-05 08:45:58 51°22.68 3°9.46 95.8 0.8 129 12.3
2003-05-05 08:46:58 51°22.67 3°9.48 99.5 0.9 140 12.3
2003-05-05 08:47:58 51°22.67 3°9.49 70.1 0.3 51 12.3
2003-05-05 08:48:58 51°22.67 3°9.49 49 0.9 356 12.5
2003-05-05 08:49:58 51°22.69 3°9.49 44.2 1 2 12.3
2003-05-05 08:50:58 51°22.71 3°9.49 42.8 1.2 1 12.3
2003-05-05 08:51:58 51°22.73 3°9.5 42.8 1.3 6 12.3
2003-05-05 08:52:58 51°22.75 3°9.5 42.5 1.4 8 12.4
2003-05-05 08:53:58 51°22.77 3°9.51 43.1 1.3 10 12.6
2003-05-05 08:54:58 51°22.8 3°9.52 42.8 1.4 12 12.5
2003-05-05 08:55:58 51°22.82 3°9.53 52.6 1.1 29 12.9
2003-05-05 08:56:58 51°22.83 3°9.54 69.7 0.7 58 13.3
2003-05-05 08:57:58 51°22.83 3°9.56 87 0.6 104 13.9
2003-05-05 08:58:58 51°22.82 3°9.57 101.4 0.9 142 13.9
2003-05-05 08:59:58 51°22.8 3°9.59 113.6 1.1 154 13.4
2003-05-05 09:00:58 51°22.78 3°9.6 124.8 1.4 171 12.8
2003-05-05 09:01:58 51°22.76 3°9.6 136.3 1.6 177 12.7
2003-05-05 09:02:58 51°22.73 3°9.6 145.7 1.9 183 12.8
2003-05-05 09:03:58 51°22.7 3°9.59 156.2 2 186 12.6
2003-05-05 09:04:58 51°22.67 3°9.58 168.3 2.4 196 12.2
2003-05-05 09:05:58 51°22.62 3°9.55 204.3 3.6 217 12.4
2003-05-05 09:06:58 51°22.57 3°9.45 260.6 6.3 256 12.4
2003-05-05 09:07:58 51°22.6 3°9.26 304.9 8.8 293 12.2
2003-05-05 09:08:58 51°22.68 3°8.99 310.6 11.9 300 12
2003-05-05 09:09:58 51°22.81 3°8.71 317.2 14.3 306 12
2003-05-05 09:10:58 51°22.95 3°8.39 317.4 14.6 307 11.8
2003-05-05 09:11:58 51°23.1 3°8.09 317.4 14.6 307 10.9
2003-05-05 09:12:58 51°23.23 3°7.77 312.3 14.9 302 11.1
2003-05-05 09:13:58 51°23.37 3°7.43 312.4 14.8 302 11.5
2003-05-05 09:14:58 51°23.5 3°7.09 312.1 14.9 302 11.9
2003-05-05 09:15:58 51°23.63 3°6.75 312.2 15.1 302 13.6
2003-05-05 09:16:58 51°23.76 3°6.42 317.6 14.9 307 16
2003-05-05 09:17:58 51°23.93 3°6.13 324.2 14.6 315 18
2003-05-05 09:18:58 51°24.11 3°5.86 333.3 14.7 324 18
2003-05-05 09:19:58 51°24.32 3°5.72 358.2 14 349 14.3
2003-05-05 09:20:58 51°24.54 3°5.66 359.4 13.4 351 11.6
2003-05-05 09:21:58 51°24.76 3°5.66 15.6 13.3 9 11.7
2003-05-05 09:22:58 51°24.98 3°5.7 13.4 13 7 11.2
2003-05-05 09:23:58 51°25.19 3°5.74 13.5 12.8 7 10.7
2003-05-05 09:24:58 51°25.4 3°5.77 13.6 12.6 5 10.3
2003-05-05 09:25:58 51°25.61 3°5.81 13.8 12.6 5 9.8
2003-05-05 09:26:58 51°25.81 3°5.84 13.7 12.4 6 9.6
2003-05-05 09:27:58 51°26.02 3°5.88 13.9 12.7 6 9.7
2003-05-05 09:28:58 51°26.23 3°5.91 14.2 12.6 6 10.2
2003-05-05 09:29:58 51°26.43 3°6 27.6 12.4 23 10.6
2003-05-05 09:30:58 51°26.61 3°6.16 34.5 12.6 30 10.6
2003-05-05 09:31:58 51°26.79 3°6.34 41.1 12.6 35 11
2003-05-05 09:32:58 51°26.96 3°6.54 40.9 12.7 37 11.6
2003-05-05 09:33:58 51°27.12 3°6.75 45.9 12.8 41 12
2003-05-05 09:34:58 51°27.27 3°7 53.6 12.9 51 12.1
2003-05-05 09:35:58 51°27.41 3°7.26 50.8 12.8 47 12
2003-05-05 09:36:58 51°27.55 3°7.52 54 12.9 52 11.9
2003-05-05 09:37:58 51°27.68 3°7.79 55.6 12.8 53 11.1
2003-05-05 09:38:58 51°27.81 3°8.06 55.1 12.6 54 11.3
2003-05-05 09:39:58 51°27.93 3°8.33 55.8 12.7 54 12.6
2003-05-05 09:40:58 51°28.06 3°8.6 55.8 12.8 53 13.1
2003-05-05 09:41:58 51°28.11 3°8.83 78.1 7.3 81 13.4
2003-05-05 09:42:58 51°28.14 3°9 84.9 6.1 89 13.2
2003-05-05 09:43:58 51°28.13 3°9.13 74.4 3.3 85 13.2
2003-05-05 09:44:58 51°28.13 3°9.17 49.8 0.6 198 13.1
2003-05-05 09:45:58 51°28.12 3°9.17 43.7 0.5 192 13.2
2003-05-05 09:46:58 51°28.12 3°9.16 45 0.4 206 13.1
2003-05-05 09:47:58 51°28.11 3°9.16 53.5 0.4 169 13.2
2003-05-05 09:48:58 51°28.11 3°9.16 50.3 0.3 170 13.2
2003-05-05 09:49:58 51°28.11 3°9.16 32.4 0.2 317 13.2
2003-05-05 09:50:58 51°28.11 3°9.16 21.6 0.4 326 13.2
2003-05-05 09:51:58 51°28.12 3°9.15 16.3 0.5 321 13.3
2003-05-05 09:52:58 51°28.12 3°9.14 9.4 0.8 315 13.2
2003-05-05 09:53:58 51°28.13 3°9.12 3 1 301 13.3
2003-05-05 09:54:58 51°28.14 3°9.1 18.5 0.7 312 13.3
2003-05-05 09:55:58 51°28.14 3°9.1 37.8 0.1 47 13.3
2003-05-05 09:56:58 51°28.15 3°9.1 50.7 0.5 97 13.3
2003-05-05 09:57:58 51°28.15 3°9.12 48.6 0.3 92 13.3
2003-05-05 09:58:58 51°28.15 3°9.11 22.4 0.6 292 13.2
2003-05-05 09:59:58 51°28.15 3°9.1 7.6 1 299 13.3
2003-05-05 10:00:58 51°28.16 3°9.08 4.2 1 299 13.4
2003-05-05 10:01:58 51°28.17 3°9.05 7.2 0.8 297 13.4
2003-05-05 10:02:58 51°28.17 3°9.04 31 0.4 302 13.5
2003-05-05 10:03:58 51°28.17 3°9.04 59.7 0.4 146 13.4
2003-05-05 10:04:58 51°28.16 3°9.05 89.2 1.2 162 13.5
2003-05-05 10:05:58 51°28.13 3°9.05 116.7 1.7 172 13.3
2003-05-05 10:06:58 51°28.1 3°9.06 140.6 2 177 13.4
2003-05-05 10:07:58 51°28.06 3°9.05 161.4 2.4 190 13.5
2003-05-05 10:08:58 51°28.02 3°9.03 182.1 2.6 196 13.3
2003-05-05 10:09:58 51°27.98 3°9.01 202.1 2.7 203 13.2
2003-05-05 10:10:58 51°27.94 3°8.97 222.8 2.7 217 13.3
2003-05-05 10:11:58 51°27.91 3°8.92 243.8 2.5 225 13.3
2003-05-05 10:12:58 51°27.88 3°8.87 269.3 2.4 238 13.2
2003-05-05 10:13:58 51°27.86 3°8.82 294.7 2.2 242 13.1
2003-05-05 10:14:58 51°27.88 3°8.75 337.9 5.6 318 13.3
2003-05-05 10:15:58 51°27.98 3°8.55 314.5 12.8 301 13.3
2003-05-05 10:16:58 51°28.06 3°8.21 299 14.2 287 12
2003-05-05 10:17:58 51°28.13 3°7.84 294.7 14.6 283 13.3
2003-05-05 10:18:58 51°28.19 3°7.46 293.2 14.6 283 14.2
2003-05-05 10:19:58 51°28.24 3°7.08 293.9 14.7 284 14.7
2003-05-05 10:20:58 51°28.3 3°6.7 294 14.6 284 15.1
2003-05-05 10:21:58 51°28.36 3°6.32 294.4 14.7 285 15.5
2003-05-05 10:22:58 51°28.42 3°5.94 294.3 14.6 285 15.4
2003-05-05 10:23:58 51°28.49 3°5.57 294.6 14.5 285 15.6
2003-05-05 10:24:58 51°28.55 3°5.2 295.1 14.6 285 17.6
2003-05-05 10:25:58 51°28.61 3°4.82 295 14.7 285 19.9
2003-05-05 10:26:58 51°28.68 3°4.44 294.6 14.8 285 21.6
2003-05-05 10:27:58 51°28.74 3°4.1 295.4 10.1 284 22.8
2003-05-05 10:28:58 51°28.75 3°3.9 264 5.8 258 23.2
2003-05-05 10:29:58 51°28.71 3°3.77 217 5.3 221 23.3
2003-05-05 10:30:58 51°28.65 3°3.73 157.1 1.7 249 23.3
2003-05-05 10:31:58 51°28.63 3°3.72 104 1 181 23.2
2003-05-05 10:32:58 51°28.62 3°3.72 73.6 0.3 200 23.2
2003-05-05 10:33:58 51°28.62 3°3.71 49.6 0.5 289 23.2
2003-05-05 10:34:58 51°28.62 3°3.7 26.8 0.9 296 23.2
2003-05-05 10:35:58 51°28.63 3°3.67 13.7 1.1 302 23.3
2003-05-05 10:36:58 51°28.64 3°3.64 2.1 1.4 292 23.3
2003-05-05 10:37:58 51°28.65 3°3.61 351 1.6 289 23.4
2003-05-05 10:38:58 51°28.66 3°3.56 341.7 1.7 282 23.4
2003-05-05 10:39:58 51°28.67 3°3.52 333 1.8 286 23.5
2003-05-05 10:40:58 51°28.67 3°3.47 324.4 2 279 23.6
2003-05-05 10:41:58 51°28.68 3°3.41 322.6 2.1 283 23.7
2003-05-05 10:42:58 51°28.69 3°3.36 335.3 2.1 294 23.6
2003-05-05 10:43:58 51°28.71 3°3.31 352.7 2 304 23.7
2003-05-05 10:44:58 51°28.72 3°3.27 13.1 1.6 319 23.7
2003-05-05 10:45:58 51°28.74 3°3.26 39.3 0.9 347 23.7
2003-05-05 10:46:58 51°28.75 3°3.26 63 0.3 21 23.8
2003-05-05 10:47:58 51°28.75 3°3.26 71.5 0.1 214 23.8
2003-05-05 10:48:58 51°28.75 3°3.25 77 0.4 201 23.7
2003-05-05 10:49:58 51°28.74 3°3.25 82.1 0.4 219 23.6
2003-05-05 10:50:58 51°28.74 3°3.24 100.1 0.8 146 23.5
2003-05-05 10:51:58 51°28.7 3°3.32 110.9 5.3 117 23.7
2003-05-05 10:52:58 51°28.69 3°3.45 88.3 4.6 89 23.7
2003-05-05 10:53:58 51°28.68 3°3.58 95.3 6.3 97 23.5
2003-05-05 10:54:58 51°28.66 3°3.69 111.2 2.3 133 23.5
2003-05-05 10:55:58 51°28.64 3°3.7 93.6 0.8 181 23.4
2003-05-05 10:56:58 51°28.63 3°3.7 105.4 0.9 183 23.4
2003-05-05 10:57:58 51°28.62 3°3.7 117.9 0.9 191 23.3
2003-05-05 10:58:58 51°28.6 3°3.69 127.7 1 206 23.4
2003-05-05 10:59:58 51°28.58 3°3.68 142.6 1.4 200 23.3
2003-05-05 11:00:58 51°28.56 3°3.66 161.1 1.6 200 23.3
2003-05-05 11:01:58 51°28.53 3°3.64 178.6 1.9 209 23.2
2003-05-05 11:02:58 51°28.5 3°3.61 196.4 2.1 215 23.2
2003-05-05 11:03:58 51°28.48 3°3.57 217.2 2.3 226 23.2
2003-05-05 11:04:58 51°28.45 3°3.52 242.1 2.4 239 23.2
2003-05-05 11:05:58 51°28.44 3°3.46 270.1 2.5 249 23.3
2003-05-05 11:06:58 51°28.43 3°3.4 299.5 2.3 265 23.4
2003-05-05 11:07:58 51°28.43 3°3.34 328.5 2.1 282 23.5
2003-05-05 11:08:58 51°28.44 3°3.3 356 1.9 308 23.7
2003-05-05 11:09:58 51°28.48 3°3.23 313.5 5.3 296 23.8
2003-05-05 11:10:58 51°28.45 3°3.03 230.3 10.7 231 23.8
2003-05-05 11:11:58 51°28.3 3°2.77 229.6 14.7 229 23.9
2003-05-05 11:12:58 51°28.13 3°2.47 230 15.1 229 23.9
2003-05-05 11:13:58 51°27.97 3°2.17 229.5 15.2 229 24
2003-05-05 11:14:58 51°27.8 3°1.87 229.7 15.2 229 23.8
2003-05-05 11:15:58 51°27.63 3°1.56 230.2 15.4 229 23.4
2003-05-05 11:16:58 51°27.46 3°1.26 230.4 15.3 229 22.9
2003-05-05 11:17:58 51°27.29 3°0.95 230.4 15.4 228 22.7
2003-05-05 11:18:58 51°27.12 3°0.64 230.8 15.5 228 24.5
2003-05-05 11:19:58 51°26.95 3°0.33 229.8 15.5 227 24.9
2003-05-05 11:20:58 51°26.77 3°0.02 230 15.6 227 24.8
2003-05-05 11:21:58 51°26.6 2°59.72 230.3 15.5 228 25.2
2003-05-05 11:22:58 51°26.42 2°59.41 230.2 15.6 228 24.9
2003-05-05 11:23:58 51°26.24 2°59.11 229.5 15.5 226 25
2003-05-05 11:24:58 51°26.07 2°58.81 230.2 15.4 227 25.3
2003-05-05 11:25:58 51°25.89 2°58.51 230.6 15.4 227 25.2
2003-05-05 11:26:58 51°25.72 2°58.21 230.8 15.3 228 25.1
2003-05-05 11:27:58 51°25.55 2°57.91 231.3 15.1 227 26.2
2003-05-05 11:28:58 51°25.38 2°57.61 230.8 15.2 228 24.8
2003-05-05 11:29:58 51°25.21 2°57.31 231.1 15.1 227 24.9
2003-05-05 11:30:58 51°25.04 2°57.01 231.5 15.1 229 24.6
2003-05-05 11:31:58 51°24.87 2°56.71 231.4 15.1 228 23.9
2003-05-05 11:32:58 51°24.7 2°56.41 231.5 15.2 229 23.4
2003-05-05 11:33:58 51°24.54 2°56.12 230.8 15 228 22.7
2003-05-05 11:34:58 51°24.37 2°55.82 231.7 15.1 229 24.1
2003-05-05 11:35:58 51°24.2 2°55.52 230 15 226 22.7
2003-05-05 11:36:58 51°24.03 2°55.22 231.3 15.2 228 21.3
2003-05-05 11:37:58 51°23.86 2°54.92 231.1 15.2 228 20.9
2003-05-05 11:38:58 51°23.7 2°54.62 230.9 15.1 228 20.5
2003-05-05 11:39:58 51°23.53 2°54.32 230.8 15.2 228 20.4
2003-05-05 11:40:58 51°23.36 2°54.02 231.5 15.1 229 20.4
2003-05-05 11:41:58 51°23.19 2°53.72 230.8 15 228 21.3
2003-05-05 11:42:58 51°23.03 2°53.42 231.1 15 228 21.5
2003-05-05 11:43:58 51°22.86 2°53.12 231.9 14.9 229 23.1
2003-05-05 11:44:58 51°22.7 2°52.82 231.4 15 230 22.9
2003-05-05 11:45:58 51°22.54 2°52.52 230.5 14.7 229 23.4
2003-05-05 11:46:58 51°22.38 2°52.22 231.5 14.7 230 23.6
2003-05-05 11:47:58 51°22.22 2°51.92 230.6 14.7 230 23.9
2003-05-05 11:48:58 51°22.07 2°51.62 231.5 14.9 231 24.2
2003-05-05 11:49:58 51°21.91 2°51.32 230.8 14.8 230 24.5
2003-05-05 11:50:58 51°21.76 2°51.01 231.3 14.5 230 24.7
2003-05-05 11:51:58 51°21.6 2°50.71 231.1 14.7 231 24.6
2003-05-05 11:52:58 51°21.45 2°50.42 231.9 14.6 231 23.9
2003-05-05 11:53:58 51°21.29 2°50.12 231.1 14.5 229 23.6
2003-05-05 11:54:58 51°21.13 2°49.82 230.8 14.6 230 23.6
2003-05-05 11:55:58 51°20.98 2°49.52 231 14.6 230 23.6
2003-05-05 11:56:58 51°20.82 2°49.23 231.1 14.5 229 23.5
2003-05-05 11:57:58 51°20.66 2°48.93 231.8 14.6 230 23.3
2003-05-05 11:58:58 51°20.5 2°48.64 231.5 14.6 230 23.3
2003-05-05 11:59:58 51°20.35 2°48.34 231.5 14.7 229 23.2
2003-05-05 12:00:58 51°20.19 2°48.05 231.2 14.7 229 23
2003-05-05 12:01:58 51°20.07 2°47.84 234.2 7.6 233 23
2003-05-05 12:02:58 51°20 2°47.73 213.3 4.8 212 23.1
2003-05-05 12:03:58 51°19.94 2°47.68 194.2 3.5 198 23.1
2003-05-05 12:04:58 51°19.88 2°47.68 149.3 3.8 157 23
2003-05-05 12:05:58 51°19.86 2°47.75 68.2 3.1 74 23.2
2003-05-05 12:06:58 51°19.88 2°47.8 37.6 1.5 34 23.2
2003-05-05 12:07:58 51°19.9 2°47.81 17.1 1.1 7 23.2
2003-05-05 12:08:58 51°19.92 2°47.8 351.6 1.1 331 23.2
2003-05-05 12:09:58 51°19.93 2°47.78 332 1.1 301 23.1
2003-05-05 12:10:58 51°19.94 2°47.75 316.8 1.1 285 23.2
2003-05-05 12:11:58 51°19.94 2°47.72 304.1 1 280 23.1
2003-05-05 12:12:58 51°19.94 2°47.7 294.2 1.1 271 23.1
2003-05-05 12:13:58 51°19.94 2°47.67 283.9 1.2 254 23.1
2003-05-05 12:14:58 51°19.94 2°47.64 272.6 1 251 23.2
2003-05-05 12:15:58 51°19.93 2°47.62 260.2 0.9 247 23.2
2003-05-05 12:16:58 51°19.92 2°47.6 243.8 1 225 23.2
2003-05-05 12:17:58 51°19.91 2°47.58 219.1 1.1 209 23.1
2003-05-05 12:18:58 51°19.89 2°47.57 191.7 1 191 23.1
2003-05-05 12:19:58 51°19.88 2°47.57 166.2 1.2 175 23.3
2003-05-05 12:20:58 51°19.86 2°47.58 148.1 1 154 23.3
2003-05-05 12:21:58 51°19.84 2°47.59 134.9 1.2 155 23.2
2003-05-05 12:22:58 51°19.82 2°47.61 122.4 1.3 139 23.3
2003-05-05 12:23:58 51°19.81 2°47.64 108.4 1.3 126 23.3
2003-05-05 12:24:58 51°19.8 2°47.67 92.1 1.2 109 23.4
2003-05-05 12:25:58 51°19.8 2°47.7 70.5 1.1 77 23.5
2003-05-05 12:26:58 51°19.81 2°47.73 45.8 1 59 23.6
2003-05-05 12:27:58 51°19.82 2°47.74 21.4 0.9 20 23.5
2003-05-05 12:28:58 51°19.83 2°47.75 359.1 0.8 351 23.6
2003-05-05 12:29:58 51°19.84 2°47.74 341.4 0.8 341 23.7
2003-05-05 12:30:58 51°19.86 2°47.73 326.9 0.7 335 23.6
2003-05-05 12:31:58 51°19.86 2°47.72 315.3 0.8 310 23.5
2003-05-05 12:32:58 51°19.87 2°47.7 304 0.8 297 23.6
2003-05-05 12:33:58 51°19.88 2°47.69 301 0.8 295 23.8
2003-05-05 12:34:58 51°19.89 2°47.67 308.9 0.8 301 23.8
2003-05-05 12:35:58 51°19.9 2°47.65 317 0.9 322 23.6
2003-05-05 12:36:58 51°19.91 2°47.64 325.5 1 329 23.6
2003-05-05 12:37:58 51°19.93 2°47.63 333.5 1 338 23.7
2003-05-05 12:38:58 51°19.94 2°47.62 341 1.2 346 23.7
2003-05-05 12:39:58 51°19.96 2°47.61 347.8 1.2 354 23.7
2003-05-05 12:40:58 51°19.99 2°47.61 355.5 1.4 3 23.7
2003-05-05 12:41:58 51°20.02 2°47.61 351 3.6 350 23.6
2003-05-05 12:42:58 51°20.1 2°47.49 296.8 11.1 291 22.4
2003-05-05 12:43:58 51°20.04 2°47.2 236.6 13.1 233 22
2003-05-05 12:44:58 51°19.9 2°46.93 233.2 13.4 229 21.3
2003-05-05 12:45:58 51°19.75 2°46.66 234.1 13.4 229 21.2
2003-05-05 12:46:58 51°19.61 2°46.39 236.2 13.2 232 18.9
2003-05-05 12:47:58 51°19.48 2°46.12 236.2 13.1 231 19.1
2003-05-05 12:48:58 51°19.34 2°45.85 235.6 13.1 231 18.2
2003-05-05 12:49:58 51°19.2 2°45.58 236.1 13.1 231 16.4
2003-05-05 12:50:58 51°19.06 2°45.32 236.2 12.8 230 16.8
2003-05-05 12:51:58 51°18.93 2°45.06 236.5 12.9 230 13.9
2003-05-05 12:52:58 51°18.79 2°44.8 235.7 13 230 15
2003-05-05 12:53:58 51°18.65 2°44.53 236.6 13 231 13.3
2003-05-05 12:54:58 51°18.52 2°44.27 239.5 12.7 233 14.1
2003-05-05 12:55:58 51°18.39 2°44 239.7 12.8 234 13.6
2003-05-05 12:56:58 51°18.26 2°43.72 239.5 12.8 233 15.5
2003-05-05 12:57:58 51°18.14 2°43.44 240.5 12.9 235 19.1
2003-05-05 12:58:58 51°18.01 2°43.16 239.3 12.9 234 23.1
2003-05-05 12:59:58 51°17.89 2°42.88 238.9 12.9 235 24.5
2003-05-05 13:00:58 51°17.76 2°42.6 239.5 12.9 236 25.1
2003-05-05 13:01:58 51°17.65 2°42.32 241.4 12.9 237 25.8
2003-05-05 13:02:58 51°17.53 2°42.03 241.3 12.9 238 25.9
2003-05-05 13:03:58 51°17.41 2°41.74 241.6 12.9 237 26.7
2003-05-05 13:04:58 51°17.32 2°41.55 233 5.8 229 26.4
2003-05-05 13:05:58 51°17.3 2°41.43 255.4 4.3 252 26.2
2003-05-05 13:06:58 51°17.28 2°41.32 256.9 3.2 253 26.4
2003-05-05 13:07:58 51°17.28 2°41.31 268.8 0.5 65 26.3
2003-05-05 13:09:04 51°17.28 2°41.33 280.3 0.7 42 5.4
2003-05-05 13:10:00 51°17.29 2°41.34 293.1 0.7 46 26.3
2003-05-05 13:10:58 51°17.3 2°41.36 306.5 1 46 26.5
2003-05-05 13:11:58 51°17.31 2°41.37 312.9 1.1 27 26.5
2003-05-05 13:12:58 51°17.33 2°41.38 310.1 1.2 8 26.3
2003-05-05 13:13:58 51°17.35 2°41.38 299.8 1.1 358 26.6
2003-05-05 13:14:58 51°17.37 2°41.38 287.4 0.9 342 26.6
2003-05-05 13:15:58 51°17.38 2°41.37 275 0.8 334 26.6
2003-05-05 13:16:58 51°17.39 2°41.36 260.6 0.4 322 26.4
2003-05-05 13:17:58 51°17.39 2°41.36 242.4 0.2 223 26.4
2003-05-05 13:18:58 51°17.39 2°41.36 219.8 0.6 155 26.5
2003-05-05 13:19:58 51°17.38 2°41.37 194.6 1 130 26.6
2003-05-05 13:20:58 51°17.36 2°41.4 174.9 1.5 122 26.6
2003-05-05 13:21:58 51°17.35 2°41.43 175.5 1.2 111 26.7
2003-05-05 13:22:58 51°17.35 2°41.46 178.8 1.3 105 26.7
2003-05-05 13:23:58 51°17.34 2°41.5 181.2 1.4 101 26.7
2003-05-05 13:24:58 51°17.34 2°41.53 184 1.1 94 26.7
2003-05-05 13:25:58 51°17.34 2°41.56 187.2 1 85 26.6
2003-05-05 13:26:58 51°17.34 2°41.59 189.7 1.2 90 26.9
2003-05-05 13:27:58 51°17.34 2°41.62 191.4 1.1 83 26.9
2003-05-05 13:28:58 51°17.34 2°41.65 193.6 1.2 84 26.9
2003-05-05 13:29:58 51°17.35 2°41.68 194.5 1.1 77 26.8
2003-05-05 13:30:58 51°17.35 2°41.71 201.9 1.1 126 26.7
2003-05-05 13:31:58 51°17.33 2°41.71 222.4 0.9 191 26.6
2003-05-05 13:32:58 51°17.32 2°41.7 245.9 1.3 253 26.6
2003-05-05 13:33:58 51°17.32 2°41.66 272.2 1.7 286 26.6
2003-05-05 13:34:58 51°17.34 2°41.61 300.4 2.5 324 26.8
2003-05-05 13:35:58 51°17.38 2°41.58 309.1 2.5 335 27
2003-05-05 13:36:58 51°17.42 2°41.56 308.6 2.3 340 27
2003-05-05 13:37:58 51°17.45 2°41.54 303.4 2.1 337 26.8
2003-05-05 13:38:58 51°17.48 2°41.52 298.3 1.9 335 26.8
2003-05-05 13:39:58 51°17.51 2°41.5 294.3 1.8 335 26.7
2003-05-05 13:40:58 51°17.54 2°41.48 305.4 1.9 343 26.6
2003-05-05 13:41:58 51°17.57 2°41.47 319.1 2.9 344 26.4
2003-05-05 13:42:58 51°17.59 2°41.4 235.7 3.4 229 26.3
2003-05-05 13:43:58 51°17.51 2°41.38 192.9 7.6 183 26.5
2003-05-05 13:44:58 51°17.36 2°41.34 200.7 10.4 193 26.7
2003-05-05 13:45:58 51°17.17 2°41.27 200.3 12.5 193 26.3
2003-05-05 13:46:58 51°16.96 2°41.18 200.3 12.6 195 25.8
2003-05-05 13:47:58 51°16.76 2°41.1 200.3 12.7 195 25
2003-05-05 13:48:58 51°16.56 2°41.02 200.7 12.7 196 24
2003-05-05 13:49:58 51°16.35 2°40.93 200.3 12.8 195 22.2
2003-05-05 13:50:58 51°16.15 2°40.85 199.6 12.8 194 21.4
2003-05-05 13:51:58 51°15.94 2°40.76 202.2 12.7 198 19.9
2003-05-05 13:52:58 51°15.74 2°40.66 199.6 12.8 192 17.9
2003-05-05 13:53:58 51°15.53 2°40.6 193.6 12.8 186 16.8
2003-05-05 13:54:58 51°15.31 2°40.62 176.5 13.3 168 14.9
2003-05-05 13:55:58 51°15.1 2°40.7 175.1 13.5 168 14.9
2003-05-05 13:56:58 51°14.88 2°40.77 175.8 13.4 168 14.9
2003-05-05 13:57:58 51°14.66 2°40.85 175.9 13.5 168 16.1
2003-05-05 13:58:58 51°14.44 2°40.93 176.3 11.7 168 16.7
2003-05-05 13:59:58 51°14.29 2°41.02 155.2 8.8 144 17.5
2003-05-05 14:00:58 51°14.18 2°41.04 211.3 4.2 192 17.4
2003-05-05 14:01:58 51°14.17 2°41.05 270.6 0.9 56 17.6
2003-05-05 14:02:58 51°14.18 2°41.07 290.3 1.2 53 17.5
2003-05-05 14:03:58 51°14.19 2°41.09 301 1.3 51 17.6
2003-05-05 14:04:58 51°14.21 2°41.12 310.5 1.5 48 17.2
2003-05-05 14:05:58 51°14.23 2°41.15 310.6 1.3 26 17.4
2003-05-05 14:06:58 51°14.25 2°41.16 299.8 1.3 9 17.6
2003-05-05 14:07:58 51°14.27 2°41.16 287.2 1.2 351 17.7
2003-05-05 14:08:58 51°14.28 2°41.15 272.8 0.8 328 17.6
2003-05-05 14:09:58 51°14.29 2°41.14 257.1 0.5 275 17.8
2003-05-05 14:10:58 51°14.29 2°41.13 238 0.6 209 17.7
2003-05-05 14:11:58 51°14.27 2°41.13 216.9 1.1 170 17.8
2003-05-05 14:12:58 51°14.25 2°41.13 210.4 1.3 166 17.7
2003-05-05 14:13:58 51°14.23 2°41.14 227.4 0.9 189 17.4
2003-05-05 14:14:58 51°14.22 2°41.13 232.2 0.9 197 17.2
2003-05-05 14:15:58 51°14.2 2°41.12 230.4 1.1 200 17.3
2003-05-05 14:16:58 51°14.19 2°41.12 226.6 1.1 195 17.6
2003-05-05 14:17:58 51°14.17 2°41.11 221 1.1 191 17.8
2003-05-05 14:18:58 51°14.15 2°41.11 216 1.4 173 17.9
2003-05-05 14:19:58 51°14.12 2°41.12 211.4 1.6 166 18.1
2003-05-05 14:20:58 51°14.1 2°41.13 207.5 1.4 149 18.4
2003-05-05 14:21:58 51°14.09 2°41.15 205.2 1.2 140 18.5
2003-05-05 14:22:58 51°14.07 2°41.17 205.1 1.2 126 18.8
2003-05-05 14:23:58 51°14.07 2°41.2 205.1 1.1 110 19
2003-05-05 14:24:58 51°14.06 2°41.23 205.7 1 111 19
2003-05-05 14:25:58 51°14.05 2°41.26 189.4 1.5 116 19.2
2003-05-05 14:26:58 51°14.04 2°41.3 163.2 2.1 109 19.5
2003-05-05 14:27:58 51°14.03 2°41.36 154.5 2.6 109 19.8
2003-05-05 14:28:58 51°14.01 2°41.42 167.5 2.2 120 20.2
2003-05-05 14:29:58 51°13.99 2°41.46 187.5 1.7 130 20.3
2003-05-05 14:30:58 51°13.98 2°41.49 211.2 1 131 20.2
2003-05-05 14:31:58 51°13.97 2°41.5 237.2 0.3 112 20.3
2003-05-05 14:32:58 51°13.97 2°41.5 265.8 0.5 335 20.3
2003-05-05 14:33:58 51°14.02 2°41.47 342.1 5.2 355 20.2
2003-05-05 14:34:58 51°14.12 2°41.54 36.4 8.2 39 19.8
2003-05-05 14:35:58 51°14.24 2°41.76 65 12.5 62 19.8
2003-05-05 14:36:58 51°14.31 2°42.08 77.6 14.1 73 20.3
2003-05-05 14:37:58 51°14.38 2°42.46 80 15.3 75 20
2003-05-05 14:38:58 51°14.46 2°42.85 79.3 15.3 74 20.2
2003-05-05 14:39:58 51°14.53 2°43.24 78.8 15.5 73 19.8
2003-05-05 14:40:58 51°14.6 2°43.63 80.7 15.4 74 19.7
2003-05-05 14:41:58 51°14.66 2°44.03 81.8 15.4 76 19.1
2003-05-05 14:42:58 51°14.73 2°44.42 84.9 15.3 79 18.2
2003-05-05 14:43:58 51°14.77 2°44.82 85.6 15.3 79 17.6
2003-05-05 14:44:58 51°14.82 2°45.22 86 15.2 79 16.4
2003-05-05 14:45:58 51°14.87 2°45.62 86.1 15.3 79 14.9
2003-05-05 14:46:58 51°14.92 2°46.02 86 15 80 13.7
2003-05-05 14:47:58 51°14.96 2°46.41 85 15 80 12.5
2003-05-05 14:48:58 51°15.01 2°46.8 85.2 14.9 81 12.2
2003-05-05 14:49:58 51°15.05 2°47.18 85.8 14.9 81 12.1
2003-05-05 14:50:58 51°15.09 2°47.57 86 14.9 80 13.3
2003-05-05 14:51:58 51°15.14 2°47.96 85.8 15 80 14.8
2003-05-05 14:52:58 51°15.18 2°48.36 85.2 15.2 79 15.7
2003-05-05 14:53:58 51°15.23 2°48.75 85.1 15.1 80 15.7
2003-05-05 14:54:58 51°15.27 2°49.14 84.9 15.2 79 15.7
2003-05-05 14:55:58 51°15.32 2°49.54 85.4 15.2 79 15.7
2003-05-05 14:56:58 51°15.37 2°49.93 84.9 15.1 78 15.7
2003-05-05 14:57:58 51°15.41 2°50.33 90.8 15 84 15.7
2003-05-05 14:58:58 51°15.43 2°50.72 91.4 15.1 84 15.7
2003-05-05 14:59:58 51°15.46 2°51.12 94.4 15 89 15.5
2003-05-05 15:00:58 51°15.41 2°51.5 111.7 14.9 103 15.3
2003-05-05 15:01:58 51°15.35 2°51.88 113.7 14.5 107 14.8
2003-05-05 15:02:58 51°15.25 2°52.22 127.1 14.4 119 14.3
2003-05-05 15:03:58 51°15.13 2°52.56 126 14.4 118 13.5
2003-05-05 15:04:58 51°15.02 2°52.89 126.2 14.3 118 13
2003-05-05 15:05:58 51°14.92 2°53.22 117 13.1 108 12.8
2003-05-05 15:06:58 51°14.85 2°53.54 119.3 13 111 12.6
2003-05-05 15:07:58 51°14.77 2°53.86 120.4 12.9 113 12.6
2003-05-05 15:08:58 51°14.69 2°54.18 119.5 13.1 110 12.7
2003-05-05 15:09:58 51°14.6 2°54.5 129.9 12.9 121 12.6
2003-05-05 15:10:58 51°14.49 2°54.8 132.8 12.9 122 12.9
2003-05-05 15:11:58 51°14.37 2°55.07 139.1 12.5 131 12.9
2003-05-05 15:12:58 51°14.26 2°55.27 137.5 7.4 134 12.3